createdAt,value
2018-12-12T00:01:57.297Z,0.66
2018-12-12T00:04:27.949Z,0.01
2018-12-12T00:06:58.696Z,-0.34
2018-12-12T00:09:29.300Z,-0.49
2018-12-12T00:12:00.103Z,-0.19
2018-12-12T00:14:30.394Z,-0.43
2018-12-12T00:17:01.432Z,-0.51
2018-12-12T00:19:32.144Z,-0.71
2018-12-12T00:22:02.922Z,-0.75
2018-12-12T00:24:33.451Z,-0.29
2018-12-12T00:27:04.204Z,-0.55
2018-12-12T00:29:36.249Z,-0.79
2018-12-12T00:32:07.084Z,-0.78
2018-12-12T00:34:37.604Z,-0.96
2018-12-12T00:37:07.969Z,-0.86
2018-12-12T00:39:40.413Z,-1.02
2018-12-12T00:42:11.715Z,-1.01
2018-12-12T00:44:42.552Z,-0.97
2018-12-12T00:47:13.738Z,-0.51
2018-12-12T00:49:45.747Z,0.07
2018-12-12T00:52:16.867Z,-0.40
2018-12-12T00:54:47.591Z,-0.35
2018-12-12T00:57:18.829Z,-0.54
2018-12-12T00:59:50.091Z,-0.74
2018-12-12T01:02:20.630Z,-0.67
2018-12-12T01:04:51.179Z,-0.87
2018-12-12T01:07:22.585Z,-0.85
2018-12-12T01:09:54.108Z,-0.93
2018-12-12T01:12:24.823Z,-0.85
2018-12-12T01:14:55.723Z,-0.92
2018-12-12T01:17:26.644Z,-0.98
2018-12-12T01:19:57.642Z,-0.62
2018-12-12T01:22:28.281Z,-0.92
2018-12-12T01:24:59.014Z,-0.71
2018-12-12T01:27:29.731Z,-0.93
2018-12-12T01:30:00.401Z,-2.13
2018-12-12T01:32:31.112Z,0.09
2018-12-12T01:35:01.681Z,0.25
2018-12-12T01:37:33.319Z,0.57
2018-12-12T01:40:05.686Z,0.24
2018-12-12T01:42:36.291Z,0.64
2018-12-12T01:45:07.438Z,0.43
2018-12-12T01:47:38.336Z,0.89
2018-12-12T01:50:09.580Z,0.64
2018-12-12T01:52:40.154Z,0.84
2018-12-12T01:55:10.916Z,0.89
2018-12-12T01:57:41.604Z,0.70
2018-12-12T02:00:12.744Z,0.04
2018-12-12T02:02:43.376Z,0.62
2018-12-12T02:05:13.962Z,0.78
2018-12-12T02:07:44.999Z,0.86
2018-12-12T02:10:16.179Z,0.87
2018-12-12T02:12:53.071Z,0.79
2018-12-12T02:15:24.800Z,0.65
2018-12-12T02:17:55.049Z,0.59
2018-12-12T02:20:27.079Z,0.88
2018-12-12T02:22:58.044Z,0.81
2018-12-12T02:25:29.459Z,0.86
2018-12-12T02:27:59.366Z,0.85
2018-12-12T02:30:30.253Z,0.79
2018-12-12T02:33:00.800Z,0.43
2018-12-12T02:35:31.395Z,0.34
2018-12-12T02:38:01.991Z,-0.43
2018-12-12T02:40:33.048Z,-0.30
2018-12-12T02:43:03.918Z,-0.20
2018-12-12T02:45:34.986Z,-0.80
2018-12-12T02:48:06.055Z,-0.60
2018-12-12T02:50:37.079Z,-0.34
2018-12-12T02:53:08.099Z,-0.35
2018-12-12T02:55:39.090Z,-0.14
2018-12-12T02:58:09.790Z,-0.13
2018-12-12T03:00:40.653Z,-0.14
2018-12-12T03:03:11.054Z,-0.38
2018-12-12T03:05:41.990Z,-0.26
2018-12-12T03:08:12.875Z,-0.24
2018-12-12T03:10:44.342Z,-0.36
2018-12-12T03:13:14.929Z,-0.06
2018-12-12T03:15:45.449Z,-0.07
2018-12-12T03:18:16.341Z,-0.01
2018-12-12T03:20:47.869Z,-0.05
2018-12-12T03:23:18.660Z,-0.10
2018-12-12T03:25:49.217Z,-0.04
2018-12-12T03:28:20.025Z,-0.12
2018-12-12T03:30:51.364Z,-0.09
2018-12-12T03:33:22.091Z,-0.21
2018-12-12T03:35:52.579Z,-0.50
2018-12-12T03:38:23.523Z,-0.70
2018-12-12T03:40:56.458Z,-1.41
2018-12-12T03:43:26.962Z,-1.13
2018-12-12T03:45:57.899Z,-0.65
2018-12-12T03:48:28.304Z,-0.57
2018-12-12T03:50:59.713Z,-0.54
2018-12-12T03:53:30.608Z,-0.46
2018-12-12T03:56:01.426Z,-0.31
2018-12-12T03:58:33.300Z,-0.92
2018-12-12T04:01:04.472Z,-0.87
2018-12-12T04:03:35.289Z,-0.80
2018-12-12T04:06:06.022Z,-1.22
2018-12-12T04:08:36.706Z,-1.14
2018-12-12T04:11:07.773Z,-0.96
2018-12-12T04:13:38.525Z,-0.83
2018-12-12T04:16:09.616Z,-0.95
2018-12-12T04:18:41.044Z,-0.77
2018-12-12T04:21:12.295Z,-0.89
2018-12-12T04:23:42.765Z,-1.22
2018-12-12T04:26:13.956Z,-0.86
2018-12-12T04:28:44.604Z,-1.13
2018-12-12T04:31:15.689Z,-1.56
2018-12-12T04:33:46.504Z,-1.50
2018-12-12T04:36:17.168Z,-1.05
2018-12-12T04:38:47.712Z,-0.99
2018-12-12T04:41:19.385Z,-1.36
2018-12-12T04:43:49.970Z,-1.00
2018-12-12T04:46:20.500Z,-1.07
2018-12-12T04:48:51.478Z,-0.93
2018-12-12T04:51:22.658Z,-0.73
2018-12-12T04:53:53.687Z,-0.23
2018-12-12T04:56:24.572Z,-0.22
2018-12-12T04:58:55.907Z,-0.54
2018-12-12T05:01:27.065Z,-0.75
2018-12-12T05:03:58.272Z,-0.89
2018-12-12T05:06:29.256Z,-0.81
2018-12-12T05:08:59.680Z,-0.97
2018-12-12T05:11:30.607Z,-0.92
2018-12-12T05:14:01.849Z,-0.82
2018-12-12T05:16:32.323Z,-1.29
2018-12-12T05:19:03.220Z,-1.22
2018-12-12T05:21:34.374Z,-1.35
2018-12-12T05:24:05.499Z,-1.30
2018-12-12T05:26:36.407Z,-3.07
2018-12-12T05:29:07.139Z,-0.88
2018-12-12T05:31:37.669Z,-0.85
2018-12-12T05:34:08.685Z,-0.97
2018-12-12T05:36:39.277Z,-0.91
2018-12-12T05:39:10.140Z,-0.76
2018-12-12T05:41:41.392Z,-1.30
2018-12-12T05:44:12.014Z,-1.13
2018-12-12T05:46:43.075Z,-1.10
2018-12-12T05:49:13.055Z,-0.54
2018-12-12T05:51:43.498Z,-0.59
2018-12-12T05:54:14.470Z,-0.53
2018-12-12T05:56:45.305Z,-0.28
2018-12-12T05:59:15.963Z,0.06
2018-12-12T06:01:47.048Z,0.22
2018-12-12T06:04:17.430Z,0.22
2018-12-12T06:06:47.885Z,0.37
2018-12-12T06:09:18.389Z,0.35
2018-12-12T06:11:49.684Z,0.56
2018-12-12T06:14:20.224Z,0.60
2018-12-12T06:16:50.171Z,-0.01
2018-12-12T06:19:19.898Z,0.26
2018-12-12T06:21:51.548Z,0.76
2018-12-12T06:24:22.288Z,1.12
2018-12-12T06:26:53.125Z,1.15
2018-12-12T06:29:23.883Z,0.13
2018-12-12T06:31:54.558Z,1.08
2018-12-12T06:34:25.165Z,-0.29
2018-12-12T06:36:56.225Z,-0.54
2018-12-12T06:39:26.858Z,-0.61
2018-12-12T06:41:58.370Z,0.00
2018-12-12T06:44:29.014Z,0.95
2018-12-12T06:46:59.676Z,1.33
2018-12-12T06:49:30.374Z,1.63
2018-12-12T06:52:01.371Z,2.02
2018-12-12T06:54:31.809Z,2.63
2018-12-12T06:57:02.687Z,3.11
2018-12-12T06:59:33.196Z,3.68
2018-12-12T07:02:04.221Z,4.07
2018-12-12T07:04:34.679Z,4.09
2018-12-12T07:07:05.808Z,4.57
2018-12-12T07:09:36.230Z,4.77
2018-12-12T07:12:07.648Z,5.64
2018-12-12T07:14:38.161Z,5.70
2018-12-12T07:17:08.688Z,6.38
2018-12-12T07:19:39.581Z,6.34
2018-12-12T07:22:10.750Z,6.55
2018-12-12T07:24:41.764Z,6.14
2018-12-12T07:27:12.609Z,6.55
2018-12-12T07:29:43.109Z,6.46
2018-12-12T07:32:14.302Z,6.67
2018-12-12T07:34:44.240Z,6.92
2018-12-12T07:37:14.067Z,7.48
2018-12-12T07:39:44.025Z,7.16
2018-12-12T07:42:14.457Z,7.39
2018-12-12T07:44:44.419Z,7.34
2018-12-12T07:47:14.477Z,7.48
2018-12-12T07:49:44.526Z,8.32
2018-12-12T07:52:14.644Z,8.49
2018-12-12T07:54:44.375Z,8.60
2018-12-12T07:57:14.223Z,8.78
2018-12-12T07:59:44.144Z,8.84
2018-12-12T08:02:14.115Z,8.94
2018-12-12T08:04:44.067Z,8.78
2018-12-12T08:07:14.045Z,9.69
2018-12-12T08:09:43.976Z,10.47
2018-12-12T08:12:14.426Z,10.03
2018-12-12T08:14:44.273Z,9.66
2018-12-12T08:17:14.286Z,10.30
2018-12-12T08:19:44.848Z,10.72
2018-12-12T08:22:16.411Z,10.87
2018-12-12T08:24:47.205Z,9.71
2018-12-12T08:27:18.167Z,9.58
2018-12-12T08:29:48.615Z,10.66
2018-12-12T08:32:20.590Z,11.47
2018-12-12T08:34:51.002Z,12.80
2018-12-12T08:37:21.882Z,12.71
2018-12-12T08:39:52.482Z,11.74
2018-12-12T08:42:23.709Z,11.52
2018-12-12T08:44:54.366Z,11.93
2018-12-12T08:47:25.204Z,12.00
2018-12-12T08:49:55.899Z,12.29
2018-12-12T08:52:26.530Z,11.72
2018-12-12T08:54:57.052Z,12.31
2018-12-12T08:57:27.857Z,12.40
2018-12-12T08:59:58.426Z,13.84
2018-12-12T09:02:29.143Z,12.67
2018-12-12T09:04:59.775Z,13.05
2018-12-12T09:07:30.541Z,13.00
2018-12-12T09:10:01.140Z,12.64
2018-12-12T09:12:32.893Z,13.33
2018-12-12T09:15:03.447Z,13.44
2018-12-12T09:17:34.042Z,13.58
2018-12-12T09:20:04.584Z,14.81
2018-12-12T09:22:35.200Z,14.86
2018-12-12T09:25:05.934Z,15.13
2018-12-12T09:27:36.506Z,14.38
2018-12-12T09:30:07.106Z,15.80
2018-12-12T09:32:37.960Z,14.81
2018-12-12T09:35:08.676Z,14.97
2018-12-12T09:37:39.227Z,14.85
2018-12-12T09:40:10.028Z,15.16
2018-12-12T09:42:40.700Z,15.40
2018-12-12T09:45:11.906Z,14.86
2018-12-12T09:47:43.109Z,16.11
2018-12-12T09:50:13.860Z,15.80
2018-12-12T09:52:45.665Z,16.75
2018-12-12T09:55:16.553Z,16.71
2018-12-12T09:57:47.158Z,15.79
2018-12-12T10:00:17.774Z,16.88
2018-12-12T10:02:49.816Z,16.91
2018-12-12T10:05:20.926Z,15.91
2018-12-12T10:07:51.484Z,16.20
2018-12-12T10:10:21.923Z,16.33
2018-12-12T10:12:53.208Z,16.04
2018-12-12T10:15:24.340Z,15.75
2018-12-12T10:17:55.087Z,16.23
2018-12-12T10:20:25.574Z,16.82
2018-12-12T10:22:56.650Z,17.27
2018-12-12T10:25:27.118Z,18.46
2018-12-12T10:27:57.688Z,18.24
2018-12-12T10:30:28.591Z,17.21
2018-12-12T10:33:00.268Z,16.43
2018-12-12T10:35:31.500Z,17.35
2018-12-12T10:38:02.351Z,17.18
2018-12-12T10:40:33.729Z,16.95
2018-12-12T10:43:04.813Z,17.64
2018-12-12T10:45:35.403Z,17.33
2018-12-12T10:48:06.134Z,17.26
2018-12-12T10:50:36.540Z,18.82
2018-12-12T10:53:09.658Z,18.63
2018-12-12T10:55:40.700Z,20.20
2018-12-12T10:58:11.477Z,19.77
2018-12-12T11:00:46.355Z,19.83
2018-12-12T11:03:21.800Z,18.75
2018-12-12T11:05:52.318Z,18.47
2018-12-12T11:08:22.840Z,18.11
2018-12-12T11:10:53.485Z,18.16
2018-12-12T11:13:23.908Z,18.07
2018-12-12T11:15:54.644Z,19.16
2018-12-12T11:18:24.959Z,19.60
2018-12-12T11:20:56.038Z,19.91
2018-12-12T11:23:26.278Z,20.67
2018-12-12T11:25:56.808Z,20.61
2018-12-12T11:28:27.542Z,19.72
2018-12-12T11:30:58.272Z,21.00
2018-12-12T11:33:28.932Z,21.13
2018-12-12T11:35:59.240Z,20.48
2018-12-12T11:38:29.792Z,20.85
2018-12-12T11:41:01.349Z,20.36
2018-12-12T11:43:32.099Z,18.93
2018-12-12T11:46:02.523Z,19.23
2018-12-12T11:48:32.883Z,18.73
2018-12-12T11:51:04.496Z,18.59
2018-12-12T11:53:34.872Z,19.68
2018-12-12T11:56:05.199Z,21.57
2018-12-12T11:58:35.491Z,22.22
2018-12-12T12:01:07.216Z,23.30
2018-12-12T12:03:37.714Z,21.33
2018-12-12T12:06:08.413Z,19.79
2018-12-12T12:08:39.003Z,19.14
2018-12-12T12:11:10.651Z,21.01
2018-12-12T12:13:41.364Z,21.60
2018-12-12T12:16:11.874Z,20.07
2018-12-12T12:18:42.107Z,21.03
2018-12-12T12:21:13.050Z,20.69
2018-12-12T12:23:43.381Z,21.73
2018-12-12T12:26:14.388Z,20.39
2018-12-12T12:28:44.873Z,20.38
2018-12-12T12:31:16.469Z,20.38
2018-12-12T12:33:46.572Z,19.57
2018-12-12T12:36:16.389Z,18.48
2018-12-12T12:38:46.311Z,18.70
2018-12-12T12:41:17.492Z,18.65
2018-12-12T12:43:47.453Z,18.85
2018-12-12T12:46:17.282Z,20.32
2018-12-12T12:48:47.251Z,16.90
2018-12-12T12:51:17.062Z,16.48
2018-12-12T12:53:47.303Z,16.36
2018-12-12T12:56:18.183Z,16.01
2018-12-12T12:58:48.694Z,16.14
2018-12-12T13:01:19.986Z,15.24
2018-12-12T13:03:50.667Z,14.01
2018-12-12T13:06:20.544Z,12.97
2018-12-12T13:08:50.305Z,12.38
2018-12-12T13:11:20.197Z,11.83
2018-12-12T13:13:50.181Z,11.62
2018-12-12T13:16:20.177Z,11.19
2018-12-12T13:18:50.100Z,10.58
2018-12-12T13:21:20.066Z,10.00
2018-12-12T13:23:49.966Z,10.57
2018-12-12T13:26:19.950Z,11.20
2018-12-12T13:28:49.857Z,11.40
2018-12-12T13:31:19.803Z,11.71
2018-12-12T13:33:49.641Z,10.68
2018-12-12T13:36:19.594Z,10.97
2018-12-12T13:38:50.627Z,11.60
2018-12-12T13:41:20.847Z,12.15
2018-12-12T13:43:50.682Z,12.40
2018-12-12T13:46:20.604Z,12.41
2018-12-12T13:48:50.591Z,12.97
2018-12-12T13:51:20.654Z,12.17
2018-12-12T13:53:50.545Z,11.44
2018-12-12T13:56:20.408Z,11.75
2018-12-12T13:58:50.354Z,11.96
2018-12-12T14:01:20.384Z,12.40
2018-12-12T14:03:50.259Z,12.52
2018-12-12T14:06:20.119Z,12.51
2018-12-12T14:08:50.079Z,12.46
2018-12-12T14:11:20.016Z,12.20
2018-12-12T14:13:49.809Z,11.95
2018-12-12T14:16:20.202Z,11.44
2018-12-12T14:18:50.960Z,10.79
2018-12-12T14:21:21.826Z,10.66
2018-12-12T14:23:52.576Z,10.55
2018-12-12T14:26:23.173Z,10.38
2018-12-12T14:28:53.852Z,9.83
2018-12-12T14:31:25.294Z,9.59
2018-12-12T14:33:56.326Z,9.18
2018-12-12T14:36:26.960Z,9.11
2018-12-12T14:38:57.803Z,8.44
2018-12-12T14:41:29.057Z,8.35
2018-12-12T14:44:00.292Z,7.98
2018-12-12T14:46:31.093Z,8.00
2018-12-12T14:49:01.889Z,8.07
2018-12-12T14:51:34.358Z,7.90
2018-12-12T14:54:04.641Z,6.90
2018-12-12T14:56:35.144Z,7.04
2018-12-12T14:59:05.894Z,7.23
2018-12-12T15:01:37.907Z,7.40
2018-12-12T15:04:09.021Z,7.41
2018-12-12T15:06:40.016Z,7.34
2018-12-12T15:09:09.984Z,7.27
2018-12-12T15:11:40.331Z,7.27
2018-12-12T15:14:11.202Z,7.15
2018-12-12T15:16:41.829Z,7.30
2018-12-12T15:19:12.531Z,7.32
2018-12-12T15:21:44.044Z,7.38
2018-12-12T15:24:15.431Z,7.13
2018-12-12T15:26:46.203Z,7.02
2018-12-12T15:29:16.431Z,6.42
2018-12-12T15:31:48.227Z,6.55
2018-12-12T15:34:19.332Z,6.57
2018-12-12T15:36:50.108Z,6.74
2018-12-12T15:39:20.764Z,4.94
2018-12-12T15:41:53.083Z,6.71
2018-12-12T15:44:23.726Z,6.77
2018-12-12T15:46:54.751Z,6.76
2018-12-12T15:49:26.243Z,6.36
2018-12-12T15:51:57.558Z,6.44
2018-12-12T15:54:28.034Z,6.63
2018-12-12T15:56:59.832Z,6.39
2018-12-12T15:59:31.125Z,6.09
2018-12-12T16:02:02.061Z,5.96
2018-12-12T16:04:32.603Z,6.01
2018-12-12T16:07:02.982Z,6.09
2018-12-12T16:09:33.518Z,6.04
2018-12-12T16:12:05.706Z,5.48
2018-12-12T16:14:36.095Z,5.34
2018-12-12T16:17:06.639Z,5.28
2018-12-12T16:19:37.552Z,5.12
2018-12-12T16:22:09.135Z,5.11
2018-12-12T16:24:40.326Z,4.97
2018-12-12T16:27:10.887Z,5.03
2018-12-12T16:29:41.134Z,5.07
2018-12-12T16:32:12.870Z,5.07
2018-12-12T16:34:44.175Z,4.67
2018-12-12T16:37:14.961Z,4.81
2018-12-12T16:39:45.273Z,5.06
2018-12-12T16:42:16.123Z,4.80
2018-12-12T16:44:47.440Z,4.87
2018-12-12T16:47:17.556Z,4.80
2018-12-12T16:49:47.991Z,4.46
2018-12-12T16:52:20.239Z,4.63
2018-12-12T16:54:49.810Z,4.71
2018-12-12T16:57:20.871Z,4.79
2018-12-12T16:59:51.690Z,4.86
2018-12-12T17:02:23.190Z,4.82
2018-12-12T17:04:53.734Z,4.80
2018-12-12T17:07:24.698Z,4.73
2018-12-12T17:09:55.075Z,4.73
2018-12-12T17:12:26.334Z,4.64
2018-12-12T17:14:57.291Z,4.52
2018-12-12T17:17:28.160Z,4.42
2018-12-12T17:19:59.215Z,4.38
2018-12-12T17:22:30.734Z,3.86
2018-12-12T17:25:01.442Z,4.22
2018-12-12T17:27:32.706Z,4.29
2018-12-12T17:30:03.475Z,4.35
2018-12-12T17:32:34.319Z,4.30
2018-12-12T17:35:08.875Z,4.34
2018-12-12T17:37:37.893Z,4.37
2018-12-12T17:40:08.560Z,4.33
2018-12-12T17:42:39.494Z,4.28
2018-12-12T17:45:10.021Z,4.13
2018-12-12T17:47:40.305Z,4.39
2018-12-12T17:50:10.849Z,3.79
2018-12-12T17:52:41.985Z,3.48
2018-12-12T17:55:12.178Z,3.84
2018-12-12T17:57:42.831Z,4.11
2018-12-12T18:00:13.800Z,4.16
2018-12-12T18:02:44.596Z,4.16
2018-12-12T18:05:15.329Z,4.12
2018-12-12T18:07:45.260Z,4.01
2018-12-12T18:10:15.912Z,3.92
2018-12-12T18:12:49.991Z,3.60
2018-12-12T18:15:20.594Z,3.64
2018-12-12T18:17:51.258Z,3.69
2018-12-12T18:20:21.779Z,3.73
2018-12-12T18:22:53.047Z,3.67
2018-12-12T18:25:23.642Z,3.62
2018-12-12T18:27:54.174Z,3.57
2018-12-12T18:30:24.791Z,3.61
2018-12-12T18:32:56.445Z,3.50
2018-12-12T18:35:27.137Z,3.40
2018-12-12T18:37:57.272Z,3.39
2018-12-12T18:40:27.744Z,3.03
2018-12-12T18:42:59.382Z,3.03
2018-12-12T18:45:30.274Z,3.12
2018-12-12T18:48:00.905Z,3.11
2018-12-12T18:50:31.987Z,3.05
2018-12-12T18:53:03.499Z,3.12
2018-12-12T18:55:34.230Z,3.23
2018-12-12T18:58:05.372Z,3.26
2018-12-12T19:00:36.310Z,3.22
2018-12-12T19:03:07.849Z,3.31
2018-12-12T19:05:38.644Z,3.40
2018-12-12T19:08:09.332Z,3.19
2018-12-12T19:10:40.713Z,3.10
2018-12-12T19:13:12.643Z,3.04
2018-12-12T19:15:43.240Z,3.01
2018-12-12T19:18:14.032Z,3.01
2018-12-12T19:20:44.874Z,3.00
2018-12-12T19:23:15.902Z,3.01
2018-12-12T19:25:46.723Z,3.00
2018-12-12T19:28:17.527Z,2.92
2018-12-12T19:30:48.371Z,2.94
2018-12-12T19:33:19.698Z,2.81
2018-12-12T19:35:50.144Z,2.89
2018-12-12T19:38:21.731Z,2.77
2018-12-12T19:40:52.390Z,2.69
2018-12-12T19:43:24.165Z,2.72
2018-12-12T19:45:55.040Z,2.72
2018-12-12T19:48:25.648Z,2.67
2018-12-12T19:50:56.171Z,2.65
2018-12-12T19:53:26.793Z,2.73
2018-12-12T19:55:57.453Z,2.59
2018-12-12T19:58:28.722Z,2.38
2018-12-12T20:00:59.257Z,2.48
2018-12-12T20:03:30.316Z,2.44
2018-12-12T20:06:01.002Z,2.47
2018-12-12T20:08:31.844Z,2.47
2018-12-12T20:11:02.053Z,2.33
2018-12-12T20:13:33.606Z,2.19
2018-12-12T20:16:04.398Z,2.25
2018-12-12T20:18:34.976Z,2.24
2018-12-12T20:21:05.398Z,2.31
2018-12-12T20:23:36.378Z,2.28
2018-12-12T20:26:06.796Z,2.36
2018-12-12T20:28:37.358Z,2.29
2018-12-12T20:31:07.899Z,2.35
2018-12-12T20:33:38.454Z,2.40
2018-12-12T20:36:09.091Z,2.37
2018-12-12T20:38:39.388Z,2.38
2018-12-12T20:41:09.719Z,2.18
2018-12-12T20:43:41.033Z,2.16
2018-12-12T20:46:11.357Z,2.15
2018-12-12T20:48:41.847Z,2.07
2018-12-12T20:51:12.452Z,2.05
2018-12-12T20:53:43.259Z,1.94
2018-12-12T20:56:13.802Z,1.75
2018-12-12T20:58:44.423Z,1.60
2018-12-12T21:01:14.845Z,1.52
2018-12-12T21:03:45.843Z,1.38
2018-12-12T21:06:16.555Z,1.12
2018-12-12T21:08:46.833Z,0.96
2018-12-12T21:11:17.156Z,1.07
2018-12-12T21:13:48.964Z,0.86
2018-12-12T21:16:19.422Z,1.30
2018-12-12T21:18:50.062Z,1.46
2018-12-12T21:21:20.988Z,1.58
2018-12-12T21:23:52.211Z,1.74
2018-12-12T21:26:23.233Z,1.77
2018-12-12T21:28:53.981Z,1.77
2018-12-12T21:31:24.717Z,1.64
2018-12-12T21:33:55.495Z,1.71
2018-12-12T21:36:26.053Z,1.67
2018-12-12T21:38:56.655Z,1.58
2018-12-12T21:41:27.298Z,1.62
2018-12-12T21:43:58.603Z,1.72
2018-12-12T21:46:28.902Z,1.71
2018-12-12T21:48:59.296Z,1.66
2018-12-12T21:51:29.742Z,1.60
2018-12-12T21:54:00.255Z,1.59
2018-12-12T21:56:30.872Z,1.65
2018-12-12T21:59:01.484Z,1.60
2018-12-12T22:01:31.736Z,1.66
2018-12-12T22:04:02.552Z,1.63
2018-12-12T22:06:33.082Z,1.60
2018-12-12T22:09:05.509Z,1.39
2018-12-12T22:11:36.004Z,1.42
2018-12-12T22:14:06.942Z,1.52
2018-12-12T22:16:37.575Z,1.57
2018-12-12T22:19:08.071Z,1.48
2018-12-12T22:21:38.402Z,1.37
2018-12-12T22:24:09.813Z,1.32
2018-12-12T22:26:40.370Z,1.16
2018-12-12T22:29:10.934Z,1.19
2018-12-12T22:31:41.593Z,1.40
2018-12-12T22:34:12.503Z,1.57
2018-12-12T22:36:43.041Z,1.78
2018-12-12T22:39:13.673Z,1.86
2018-12-12T22:41:44.478Z,1.89
2018-12-12T22:44:16.839Z,1.99
2018-12-12T22:46:47.156Z,1.86
2018-12-12T22:49:17.479Z,1.31
2018-12-12T22:51:47.824Z,1.68
2018-12-12T22:54:18.684Z,1.92
2018-12-12T22:56:48.720Z,1.91
2018-12-12T22:59:19.096Z,2.13
2018-12-12T23:01:49.229Z,2.10
2018-12-12T23:04:20.166Z,1.68
2018-12-12T23:06:50.421Z,1.61
2018-12-12T23:09:21.038Z,0.14
2018-12-12T23:11:51.620Z,1.84
2018-12-12T23:14:22.803Z,1.92
2018-12-12T23:16:53.306Z,1.92
2018-12-12T23:19:23.646Z,1.95
2018-12-12T23:21:54.057Z,1.98
2018-12-12T23:24:25.233Z,1.99
2018-12-12T23:26:55.963Z,1.46
2018-12-12T23:29:26.799Z,1.83
2018-12-12T23:31:57.498Z,2.07
2018-12-12T23:34:28.383Z,2.30
2018-12-12T23:36:58.683Z,2.25
2018-12-12T23:39:29.396Z,2.12
2018-12-12T23:41:59.967Z,1.95
2018-12-12T23:44:31.750Z,1.87
2018-12-12T23:47:02.298Z,1.91
2018-12-12T23:49:32.854Z,2.01
2018-12-12T23:52:03.240Z,1.91
2018-12-12T23:54:33.987Z,1.53
2018-12-12T23:57:04.561Z,1.63
2018-12-12T23:59:35.619Z,1.71
